Daihatsumaru — JD2764 — position and weather

sailwx.info

Track history (hours):
 
Tides and Currents Weather Stations Pressure Air Temp Water Temp Dewpoint Dewpoint Depression Visibility Wind Speed Wind Dir Waves Ship Positions

Daihatsumaru

Last reported at 2016-Dec-09 05:17 UTC. Time now 2016-Dec-10 12:45 UTC.
Position N 34°36' E 134°54'.

Length 106 m; draft 4.5 m.

Type: Cargo ship. MMSI: 431000701.

Date/timePositionNaut miles runAvg speedWind from/ knotsBaromVisibWave heightAir tempDewpointWater temp
2016-Dec-09 05:17N 34°36' E 134°54'1014.2
2016-Dec-09 04:33N 34°36' E 135°07'1413.8
2016-Dec-09 03:33N 34°41' E 135°23'1 0.7
2016-Dec-09 02:33N 34°41' E 135°23'0 0.0
2016-Dec-09 01:33N 34°41' E 135°23'0 0.0
2016-Dec-09 00:31N 34°41' E 135°23'0 0.0
2016-Dec-08 23:32N 34°41' E 135°23'2 2.3
2016-Dec-08 22:33N 34°40' E 135°21'0 0.3
2016-Dec-08 21:33N 34°40' E 135°21'0 0.0
2016-Dec-08 20:33N 34°40' E 135°21'0 0.0
2016-Dec-08 19:33N 34°40' E 135°21'10 9.7
2016-Dec-08 18:34N 34°35' E 135°11'13 0.4
2016-Dec-07 05:13N 34°36' E 134°54'1015.5
2016-Dec-07 04:33N 34°36' E 135°07'1414.1
2016-Dec-07 03:33N 34°41' E 135°23'0 0.4
2016-Dec-07 02:33N 34°41' E 135°23'0 0.0
2016-Dec-07 01:33N 34°41' E 135°23'0 0.0
2016-Dec-07 00:34N 34°41' E 135°23'0 0.0
2016-Dec-06 23:34N 34°41' E 135°23'3 2.7
2016-Dec-06 22:33N 34°40' E 135°21'0 0.4
2016-Dec-06 21:33N 34°40' E 135°20'0 0.0
2016-Dec-06 20:34N 34°40' E 135°20'7 3.5
2016-Dec-06 18:34N 34°35' E 135°13'1414.1
2016-Dec-06 17:33N 34°36' E 134°56'  
2016-Dec-03 05:28N 34°36' E 134°54'1313.9
2016-Dec-03 04:34N 34°36' E 135°09'1312.4
2016-Dec-03 03:33N 34°41' E 135°23'0 0.0
2016-Dec-03 02:33N 34°41' E 135°23'0 0.0
2016-Dec-03 01:33N 34°41' E 135°23'0 0.0
2016-Dec-03 00:33N 34°41' E 135°23'0 0.0
2016-Dec-02 23:33N 34°41' E 135°23'3 2.6
2016-Dec-02 22:33N 34°40' E 135°21'0 0.5
2016-Dec-02 21:33N 34°40' E 135°20'0 0.0
2016-Dec-02 20:33N 34°40' E 135°20'0 0.0
2016-Dec-02 19:33N 34°40' E 135°20'5 5.4
2016-Dec-02 18:34N 34°36' E 135°16'1515.4
2016-Dec-02 17:33N 34°36' E 134°57'5 0.1
2016-Dec-01 04:33N 34°37' E 135°03'1313.3
2016-Dec-01 03:33N 34°39' E 135°18'5 4.5
2016-Dec-01 02:29N 34°41' E 135°23'0 0.0
2016-Dec-01 01:33N 34°41' E 135°23'0 0.0
2016-Dec-01 00:33N 34°41' E 135°23'0 0.0
2016-Nov-30 23:33N 34°41' E 135°23'0 0.0
2016-Nov-30 22:33N 34°41' E 135°23'3 3.2
2016-Nov-30 21:33N 34°40' E 135°20'0 0.0
2016-Nov-30 20:33N 34°40' E 135°20'0 0.0
2016-Nov-30 19:33N 34°40' E 135°20'9 9.4
2016-Nov-30 18:33N 34°35' E 135°10'  
Track history (hours):
 
Tides and Currents Weather Stations Pressure Air Temp Water Temp Dewpoint Dewpoint Depression Visibility Wind Speed Wind Dir Waves Ship Positions

Daihatsumaru

Last reported at 2016-Dec-09 05:17 UTC. Time now 2016-Dec-10 12:45 UTC.
Position N 34°36' E 134°54'.

Length 106 m; draft 4.5 m.

Type: Cargo ship. MMSI: 431000701.

Date/timePositionNaut miles runAvg speedWind from/ knotsBaromVisibWave heightAir tempDewpointWater temp
2016-Dec-09 05:17N 34°36' E 134°54'1014.2
2016-Dec-09 04:33N 34°36' E 135°07'1413.8
2016-Dec-09 03:33N 34°41' E 135°23'1 0.7
2016-Dec-09 02:33N 34°41' E 135°23'0 0.0
2016-Dec-09 01:33N 34°41' E 135°23'0 0.0
2016-Dec-09 00:31N 34°41' E 135°23'0 0.0
2016-Dec-08 23:32N 34°41' E 135°23'2 2.3
2016-Dec-08 22:33N 34°40' E 135°21'0 0.3
2016-Dec-08 21:33N 34°40' E 135°21'0 0.0
2016-Dec-08 20:33N 34°40' E 135°21'0 0.0
2016-Dec-08 19:33N 34°40' E 135°21'10 9.7
2016-Dec-08 18:34N 34°35' E 135°11'13 0.4
2016-Dec-07 05:13N 34°36' E 134°54'1015.5
2016-Dec-07 04:33N 34°36' E 135°07'1414.1
2016-Dec-07 03:33N 34°41' E 135°23'0 0.4
2016-Dec-07 02:33N 34°41' E 135°23'0 0.0
2016-Dec-07 01:33N 34°41' E 135°23'0 0.0
2016-Dec-07 00:34N 34°41' E 135°23'0 0.0
2016-Dec-06 23:34N 34°41' E 135°23'3 2.7
2016-Dec-06 22:33N 34°40' E 135°21'0 0.4
2016-Dec-06 21:33N 34°40' E 135°20'0 0.0
2016-Dec-06 20:34N 34°40' E 135°20'7 3.5
2016-Dec-06 18:34N 34°35' E 135°13'1414.1
2016-Dec-06 17:33N 34°36' E 134°56'  
2016-Dec-03 05:28N 34°36' E 134°54'1313.9
2016-Dec-03 04:34N 34°36' E 135°09'1312.4
2016-Dec-03 03:33N 34°41' E 135°23'0 0.0
2016-Dec-03 02:33N 34°41' E 135°23'0 0.0
2016-Dec-03 01:33N 34°41' E 135°23'0 0.0
2016-Dec-03 00:33N 34°41' E 135°23'0 0.0
2016-Dec-02 23:33N 34°41' E 135°23'3 2.6
2016-Dec-02 22:33N 34°40' E 135°21'0 0.5
2016-Dec-02 21:33N 34°40' E 135°20'0 0.0
2016-Dec-02 20:33N 34°40' E 135°20'0 0.0
2016-Dec-02 19:33N 34°40' E 135°20'5 5.4
2016-Dec-02 18:34N 34°36' E 135°16'1515.4
2016-Dec-02 17:33N 34°36' E 134°57'5 0.1
2016-Dec-01 04:33N 34°37' E 135°03'1313.3
2016-Dec-01 03:33N 34°39' E 135°18'5 4.5
2016-Dec-01 02:29N 34°41' E 135°23'0 0.0
2016-Dec-01 01:33N 34°41' E 135°23'0 0.0
2016-Dec-01 00:33N 34°41' E 135°23'0 0.0
2016-Nov-30 23:33N 34°41' E 135°23'0 0.0
2016-Nov-30 22:33N 34°41' E 135°23'3 3.2
2016-Nov-30 21:33N 34°40' E 135°20'0 0.0
2016-Nov-30 20:33N 34°40' E 135°20'0 0.0
2016-Nov-30 19:33N 34°40' E 135°20'9 9.4
2016-Nov-30 18:33N 34°35' E 135°10'  

Dump ship's entire track history